Time;durP1;ratioP1;P1;durP2;ratioP2;P2;SDS_P1;SDS_P2;PMS_P1;PMS_P2;Temp;Humidity;BMP_temperature;BMP_pressure;BME280_temperature;BME280_humidity;BME280_pressure;Samples;Min_cycle;Max_cycle;Signal;HPM_P1;HPM_P2
2021/08/26 00:06:38;;;;;;;15.73;14.23;;;;;;;20.81;90.26;100069.72;5027283;28;20044;-71
2021/08/26 00:09:03;;;;;;;16.85;15.05;;;;;;;21.38;89.64;100107.50;5028080;28;20049;-73
2021/08/26 00:11:30;;;;;;;15.43;13.98;;;;;;;21.48;87.43;100090.75;5028154;28;20026;-72
2021/08/26 00:13:55;;;;;;;15.57;13.57;;;;;;;21.63;86.35;100078.31;5028112;28;20525;-72
2021/08/26 00:16:25;;;;;;;15.10;13.60;;;;;;;21.81;85.64;100067.50;5028685;28;20061;-71
2021/08/26 00:18:51;;;;;;;15.50;13.98;;;;;;;21.87;85.78;100027.13;5028397;28;20045;-72
2021/08/26 00:21:16;;;;;;;15.93;13.88;;;;;;;22.26;85.02;100058.00;5028520;28;20543;-72
2021/08/26 00:23:42;;;;;;;15.60;13.48;;;;;;;22.03;83.47;100046.16;5028404;28;20112;-72
2021/08/26 00:26:07;;;;;;;17.00;14.93;;;;;;;21.77;84.39;100042.19;5028450;28;20045;-71
2021/08/26 00:28:33;;;;;;;18.35;16.45;;;;;;;21.63;86.45;100034.53;5028733;28;20046;-72
2021/08/26 00:30:59;;;;;;;16.60;14.80;;;;;;;21.80;85.10;100030.75;5028196;28;20076;-73
2021/08/26 00:33:24;;;;;;;15.05;13.60;;;;;;;21.89;84.19;100029.72;5028153;28;20035;-71
2021/08/26 00:35:51;;;;;;;15.20;13.70;;;;;;;22.18;83.45;100052.00;5027638;28;20029;-74
2021/08/26 00:38:16;;;;;;;15.30;13.80;;;;;;;22.20;83.74;100042.34;5028602;28;20030;-71
2021/08/26 00:40:41;;;;;;;15.55;13.80;;;;;;;22.13;83.24;100021.44;5046351;28;20118;-73
2021/08/26 00:43:07;;;;;;;16.63;13.70;;;;;;;22.07;83.08;100037.31;5052701;28;20111;-71
2021/08/26 00:45:33;;;;;;;15.70;14.18;;;;;;;21.54;84.99;100049.53;5052450;28;20024;-72
2021/08/26 00:48:02;;;;;;;15.32;13.90;;;;;;;21.62;86.07;100066.94;5070342;28;20031;-70
2021/08/26 00:50:28;;;;;;;15.02;13.68;;;;;;;21.47;85.71;100048.72;5052287;28;20047;-70
2021/08/26 00:52:53;;;;;;;14.95;13.45;;;;;;;21.74;84.50;100065.00;5070145;28;20021;-72
2021/08/26 00:55:19;;;;;;;17.42;14.10;;;;;;;21.76;84.97;100052.72;5070912;28;20033;-72
2021/08/26 00:57:44;;;;;;;15.07;13.57;;;;;;;21.70;85.10;100064.19;5070493;28;20479;-71
2021/08/26 01:00:11;;;;;;;17.05;15.35;;;;;;;21.62;85.88;100063.44;5072846;28;20045;-71
2021/08/26 01:02:51;;;;;;;17.92;14.52;;;;;;;21.75;86.19;100059.72;5074007;28;20028;-73
2021/08/26 01:05:25;;;;;;;16.27;14.63;;;;;;;21.90;84.67;100065.63;5074175;28;20074;-70
2021/08/26 01:08:01;;;;;;;16.23;14.57;;;;;;;21.89;84.22;100054.25;5073815;28;20032;-72
2021/08/26 01:10:26;;;;;;;16.05;14.55;;;;;;;21.97;84.58;100056.78;5060448;28;20362;-70
2021/08/26 01:12:56;;;;;;;15.73;14.13;;;;;;;21.77;82.99;100017.66;5073717;28;20103;-70
2021/08/26 01:15:23;;;;;;;15.25;13.73;;;;;;;21.86;84.28;100061.31;5073064;28;20024;-74
2021/08/26 01:17:48;;;;;;;16.00;14.50;;;;;;;21.76;84.96;100055.34;5073793;28;20036;-75
2021/08/26 01:20:15;;;;;;;15.82;14.23;;;;;;;21.86;85.11;100043.78;5073220;28;20028;-72
2021/08/26 01:22:41;;;;;;;16.88;14.93;;;;;;;21.98;83.97;100040.97;5073352;28;20024;-71
2021/08/26 01:25:15;;;;;;;15.07;13.63;;;;;;;22.09;83.44;100053.94;5073219;28;20028;-72
2021/08/26 01:27:48;;;;;;;15.55;13.98;;;;;;;22.09;83.19;100045.16;5073217;28;20146;-72
2021/08/26 01:30:18;;;;;;;17.35;15.27;;;;;;;22.07;83.33;100055.72;5073003;28;20405;-70
2021/08/26 01:32:44;;;;;;;18.20;13.88;;;;;;;22.01;82.00;100037.41;5073699;28;20031;-72
2021/08/26 01:35:11;;;;;;;18.05;15.45;;;;;;;22.04;82.09;100042.59;5073149;28;20036;-75
2021/08/26 01:37:39;;;;;;;17.20;15.52;;;;;;;21.92;82.25;100038.44;5073138;28;20025;-69
2021/08/26 01:40:05;;;;;;;17.02;15.23;;;;;;;21.71;82.74;100021.25;5073111;28;20467;-74
2021/08/26 01:42:30;;;;;;;17.95;16.02;;;;;;;21.38;85.11;100033.13;5072887;28;20109;-70
2021/08/26 01:44:57;;;;;;;16.60;15.10;;;;;;;21.40;84.66;100032.22;5055350;28;20071;-70
2021/08/26 01:47:23;;;;;;;17.63;15.93;;;;;;;20.83;86.28;100031.22;5073120;28;20029;-74
2021/08/26 01:49:51;;;;;;;18.15;15.35;;;;;;;20.83;87.07;100033.81;5055054;28;20031;-69
2021/08/26 01:52:19;;;;;;;17.42;15.60;;;;;;;20.46;88.36;100035.97;5072738;28;20379;-70
2021/08/26 01:54:51;;;;;;;17.95;16.20;;;;;;;20.49;89.01;100039.44;5073021;28;20107;-70
2021/08/26 01:57:18;;;;;;;19.45;16.35;;;;;;;20.17;89.17;100022.28;5055134;28;20039;-72
2021/08/26 01:59:45;;;;;;;18.02;16.17;;;;;;;20.31;89.41;100034.38;5054912;28;20044;-70
2021/08/26 02:02:10;;;;;;;19.77;17.70;;;;;;;20.19;89.89;100030.16;5072760;28;20482;-72
2021/08/26 02:04:36;;;;;;;19.80;17.88;;;;;;;20.08;89.11;99995.31;5054707;28;20031;-71
2021/08/26 02:07:01;;;;;;;19.05;17.25;;;;;;;20.55;88.99;100041.16;5072480;28;20471;-72
2021/08/26 02:09:27;;;;;;;19.52;17.48;;;;;;;20.83;87.75;100039.06;5072405;28;20056;-71
2021/08/26 02:11:52;;;;;;;19.38;16.95;;;;;;;20.90;86.58;100039.00;5071186;28;20025;-73
2021/08/26 02:14:17;;;;;;;20.77;18.20;;;;;;;21.00;86.49;100044.13;5072461;28;20028;-70
2021/08/26 02:16:43;;;;;;;18.58;16.77;;;;;;;20.80;85.89;100038.28;5072864;28;20027;-70
2021/08/26 02:19:08;;;;;;;18.67;16.90;;;;;;;20.63;86.88;100030.56;5072668;28;20016;-70
2021/08/26 02:21:34;;;;;;;20.10;18.10;;;;;;;20.53;86.71;100038.50;5072420;28;20039;-70
2021/08/26 02:23:59;;;;;;;20.38;18.10;;;;;;;20.60;86.96;100044.59;5071973;28;20466;-70
2021/08/26 02:26:25;;;;;;;19.75;17.58;;;;;;;20.53;87.14;100043.75;5072647;28;20039;-71
2021/08/26 02:28:50;;;;;;;19.55;17.65;;;;;;;20.59;86.10;100034.13;5072269;28;20024;-71
2021/08/26 02:31:16;;;;;;;19.63;17.67;;;;;;;20.58;86.25;100020.13;5072367;28;20089;-69
2021/08/26 02:33:41;;;;;;;20.05;18.10;;;;;;;20.13;86.69;100007.47;5072100;28;20016;-70
2021/08/26 02:36:07;;;;;;;21.27;19.27;;;;;;;19.93;88.44;100035.63;5072038;28;20029;-70
2021/08/26 02:38:32;;;;;;;21.10;19.00;;;;;;;19.97;88.37;100040.81;5072150;28;20406;-68
2021/08/26 02:40:57;;;;;;;22.27;19.42;;;;;;;20.01;87.36;100020.69;5071593;28;20027;-67
2021/08/26 02:43:23;;;;;;;20.98;18.98;;;;;;;20.04;88.12;100004.97;5072276;28;20379;-68
2021/08/26 02:45:48;;;;;;;20.15;18.17;;;;;;;20.30;87.25;100053.63;5071890;28;20414;-68
2021/08/26 02:48:14;;;;;;;20.33;18.00;;;;;;;20.40;86.49;100052.66;5071665;28;20474;-68
2021/08/26 02:50:39;;;;;;;19.20;17.40;;;;;;;20.50;86.01;100041.19;5071661;28;20024;-68
2021/08/26 02:53:05;;;;;;;19.13;17.25;;;;;;;20.73;85.46;100068.09;5071650;28;20032;-68
2021/08/26 02:55:30;;;;;;;17.98;16.20;;;;;;;20.82;85.11;100062.72;5071868;28;20020;-69
2021/08/26 02:57:56;;;;;;;18.60;16.77;;;;;;;20.82;84.95;100066.22;5071811;28;20037;-71
2021/08/26 03:00:21;;;;;;;18.45;16.42;;;;;;;20.75;84.71;100056.69;5071992;28;20048;-70
2021/08/26 03:02:46;;;;;;;19.63;16.60;;;;;;;20.81;85.67;100051.38;5071352;28;20024;-74
2021/08/26 03:05:12;;;;;;;20.00;16.13;;;;;;;20.79;84.74;100053.13;5071355;28;20033;-73
2021/08/26 03:07:37;;;;;;;17.98;16.27;;;;;;;20.62;85.45;100055.94;5071471;28;20031;-69
2021/08/26 03:10:03;;;;;;;18.63;16.73;;;;;;;20.68;85.22;100053.22;5070896;28;20470;-69
2021/08/26 03:12:29;;;;;;;19.92;17.55;;;;;;;20.53;85.81;100051.63;5071546;28;20486;-72
2021/08/26 03:14:54;;;;;;;18.90;17.02;;;;;;;20.56;86.38;100055.13;5070108;28;20028;-73
2021/08/26 03:17:19;;;;;;;19.30;17.40;;;;;;;20.58;86.22;100045.50;5070818;28;20028;-68
2021/08/26 03:19:45;;;;;;;19.48;17.27;;;;;;;20.66;85.34;100038.38;5071652;28;20024;-68
2021/08/26 03:22:10;;;;;;;20.85;17.77;;;;;;;20.77;85.86;100043.53;5070760;28;20567;-70
2021/08/26 03:24:36;;;;;;;18.90;16.98;;;;;;;20.81;84.46;100046.13;5071312;28;20037;-68
2021/08/26 03:27:01;;;;;;;19.95;17.92;;;;;;;20.82;84.44;100046.97;5071809;28;20021;-68
2021/08/26 03:29:27;;;;;;;18.75;16.85;;;;;;;20.85;84.75;100050.44;5071702;28;20028;-68
2021/08/26 03:31:52;;;;;;;21.75;17.33;;;;;;;20.81;83.94;100051.38;5071419;28;20028;-68
2021/08/26 03:34:17;;;;;;;21.73;17.02;;;;;;;20.84;84.32;100053.09;5071529;28;20033;-68
2021/08/26 03:36:43;;;;;;;19.83;17.55;;;;;;;20.88;84.10;100054.78;5067999;28;20029;-70
2021/08/26 03:39:08;;;;;;;23.02;17.33;;;;;;;20.71;84.18;100028.75;5016017;28;20041;-68
2021/08/26 03:41:37;;;;;;;18.75;16.77;;;;;;;20.85;82.78;100053.06;5051351;28;20025;-68
2021/08/26 03:44:02;;;;;;;18.85;16.85;;;;;;;20.64;82.92;100027.06;5051356;28;20036;-68
2021/08/26 03:46:30;;;;;;;18.45;16.52;;;;;;;20.69;83.62;100067.22;5051138;28;20025;-68
2021/08/26 03:48:55;;;;;;;20.20;17.25;;;;;;;20.73;84.00;100071.56;5051290;28;20028;-67
2021/08/26 03:51:21;;;;;;;18.00;16.02;;;;;;;20.82;83.52;100063.59;5051153;28;20541;-71
2021/08/26 03:53:46;;;;;;;19.42;17.33;;;;;;;20.61;83.55;100032.31;5051189;28;20055;-72
2021/08/26 03:56:12;;;;;;;18.38;15.82;;;;;;;20.73;83.54;100060.22;5053645;28;20489;-68
2021/08/26 03:58:37;;;;;;;20.65;16.90;;;;;;;20.77;83.38;100073.28;5063213;28;20425;-69
2021/08/26 04:01:06;;;;;;;20.15;18.05;;;;;;;20.71;83.17;100068.09;5065221;28;20503;-68
2021/08/26 04:03:32;;;;;;;18.70;16.90;;;;;;;20.64;83.20;100061.16;5056156;28;20025;-68
2021/08/26 04:05:58;;;;;;;20.58;18.45;;;;;;;20.45;84.24;100069.22;5050757;28;20048;-68
2021/08/26 04:08:24;;;;;;;21.58;18.67;;;;;;;20.31;84.97;100057.97;5051870;28;20082;-68
2021/08/26 04:10:50;;;;;;;22.38;17.90;;;;;;;20.26;85.21;100070.28;5054093;28;20475;-68
2021/08/26 04:13:15;;;;;;;21.45;18.98;;;;;;;20.33;85.71;100064.94;5068190;28;20115;-67
2021/08/26 04:15:41;;;;;;;20.77;18.58;;;;;;;20.41;85.48;100057.03;5060726;28;20021;-70
2021/08/26 04:18:07;;;;;;;19.80;17.67;;;;;;;20.56;84.79;100070.84;5059654;28;20013;-69
2021/08/26 04:20:32;;;;;;;20.02;16.73;;;;;;;20.59;84.62;100068.22;5068621;28;20132;-68
2021/08/26 04:22:58;;;;;;;21.83;18.17;;;;;;;20.74;84.37;100085.56;5054401;28;20040;-68
2021/08/26 04:25:23;;;;;;;19.35;17.50;;;;;;;20.70;84.26;100076.81;5050754;28;20406;-69
2021/08/26 04:27:49;;;;;;;23.17;17.42;;;;;;;20.53;84.96;100071.75;5050736;28;20033;-68
2021/08/26 04:30:15;;;;;;;20.73;18.52;;;;;;;20.39;86.25;100089.38;5050533;28;20475;-69
2021/08/26 04:32:40;;;;;;;21.05;18.75;;;;;;;20.29;87.11;100083.38;5053427;28;20111;-68
2021/08/26 04:35:06;;;;;;;21.50;19.30;;;;;;;20.12;87.90;100086.97;5073468;28;20063;-68
2021/08/26 04:37:31;;;;;;;20.38;18.17;;;;;;;20.13;87.71;100065.13;5074491;28;20551;-68
2021/08/26 04:39:57;;;;;;;20.00;17.70;;;;;;;20.37;87.29;100076.28;5074710;28;20149;-69
2021/08/26 04:42:22;;;;;;;19.08;17.00;;;;;;;20.46;86.60;100070.97;5074560;28;20033;-69
2021/08/26 04:44:48;;;;;;;21.55;18.52;;;;;;;20.58;86.41;100079.56;5074471;28;20066;-69
2021/08/26 04:47:13;;;;;;;18.73;16.90;;;;;;;20.68;86.05;100082.06;5074569;28;20482;-68
2021/08/26 04:49:39;;;;;;;20.08;18.05;;;;;;;20.44;86.03;100033.38;5074308;28;20025;-68
2021/08/26 04:52:04;;;;;;;19.55;17.63;;;;;;;20.53;86.47;100083.09;5074234;28;20389;-69
2021/08/26 04:54:30;;;;;;;20.58;18.60;;;;;;;20.49;86.38;100075.31;5074443;28;20020;-69
2021/08/26 04:56:55;;;;;;;20.95;18.88;;;;;;;20.67;86.71;100095.19;5074443;28;20029;-69
2021/08/26 04:59:21;;;;;;;20.42;18.33;;;;;;;20.68;86.75;100086.47;5074386;28;20044;-69
2021/08/26 05:01:46;;;;;;;21.23;19.23;;;;;;;20.69;86.83;100085.56;5074194;28;20020;-68
2021/08/26 05:04:11;;;;;;;21.33;19.05;;;;;;;20.57;87.97;100089.19;5074052;28;20039;-69
2021/08/26 05:06:37;;;;;;;19.95;18.02;;;;;;;20.58;88.99;100082.19;5074010;28;20025;-69
2021/08/26 05:09:02;;;;;;;19.33;16.95;;;;;;;20.67;88.68;100071.59;5022256;28;20036;-69
2021/08/26 05:11:28;;;;;;;22.50;17.50;;;;;;;20.71;87.77;100075.97;5074403;28;20082;-68
2021/08/26 05:13:53;;;;;;;22.00;17.63;;;;;;;20.71;88.98;100091.72;5073936;28;20036;-68
2021/08/26 05:16:19;;;;;;;19.83;17.83;;;;;;;20.55;89.19;100076.97;5073883;28;20028;-69
2021/08/26 05:18:44;;;;;;;20.42;18.42;;;;;;;20.64;88.98;100080.38;5074046;28;20021;-69
2021/08/26 05:21:10;;;;;;;20.77;18.55;;;;;;;20.72;89.56;100082.09;5073624;28;20032;-68
2021/08/26 05:23:35;;;;;;;19.15;17.23;;;;;;;20.79;89.15;100070.63;5074119;28;20032;-70
2021/08/26 05:26:01;;;;;;;19.52;17.73;;;;;;;20.76;89.13;100063.69;5074237;28;20020;-68
2021/08/26 05:28:27;;;;;;;21.38;19.25;;;;;;;20.79;89.64;100066.25;5073519;28;20513;-68
2021/08/26 05:30:52;;;;;;;21.48;19.48;;;;;;;20.81;89.33;100067.09;5073759;28;20075;-68
2021/08/26 05:33:17;;;;;;;23.60;20.90;;;;;;;20.73;90.33;100073.31;5073670;28;20021;-69
2021/08/26 05:35:43;;;;;;;22.33;20.13;;;;;;;20.76;90.66;100061.06;5073478;28;20036;-67
2021/08/26 05:38:08;;;;;;;22.05;19.77;;;;;;;20.75;89.98;100068.91;5073597;28;20021;-68
2021/08/26 05:40:34;;;;;;;21.73;19.58;;;;;;;20.92;89.94;100074.88;5073581;28;20031;-69
2021/08/26 05:42:59;;;;;;;22.95;20.55;;;;;;;20.97;90.09;100078.28;5073357;28;20021;-69
2021/08/26 05:45:26;;;;;;;24.13;21.10;;;;;;;21.05;89.46;100072.94;5055145;28;20029;-73
2021/08/26 05:47:55;;;;;;;24.02;21.83;;;;;;;21.09;88.68;100076.41;5073446;28;20028;-69
2021/08/26 05:50:21;;;;;;;22.55;20.27;;;;;;;21.22;89.26;100071.84;5073165;28;20035;-69
2021/08/26 05:52:48;;;;;;;26.25;23.65;;;;;;;20.91;88.50;100023.25;5073375;28;20453;-69
2021/08/26 05:55:15;;;;;;;24.08;21.55;;;;;;;21.17;88.35;100054.41;5021437;28;20048;-69
2021/08/26 05:57:40;;;;;;;23.67;21.35;;;;;;;21.35;88.41;100062.91;5073519;28;20025;-69
2021/08/26 06:00:06;;;;;;;23.60;21.20;;;;;;;21.44;87.11;100073.28;5073264;28;20071;-68
2021/08/26 06:02:32;;;;;;;24.25;21.67;;;;;;;21.55;87.17;100073.13;5055154;28;20021;-68
2021/08/26 06:04:57;;;;;;;23.83;21.48;;;;;;;21.58;87.40;100072.25;5072584;28;20040;-69
2021/08/26 06:07:23;;;;;;;23.25;20.92;;;;;;;21.55;86.61;100056.53;5072920;28;20020;-67
2021/08/26 06:09:48;;;;;;;23.25;21.15;;;;;;;21.59;86.59;100037.22;5072952;28;20033;-68
2021/08/26 06:12:14;;;;;;;23.05;20.92;;;;;;;21.41;87.93;100061.94;5072790;28;20021;-69
2021/08/26 06:14:39;;;;;;;23.30;20.90;;;;;;;21.15;88.62;100056.19;5072807;28;20024;-69
2021/08/26 06:17:04;;;;;;;25.55;22.02;;;;;;;21.01;89.36;100059.00;5072801;28;20024;-70
2021/08/26 06:19:30;;;;;;;25.52;23.05;;;;;;;21.01;90.15;100055.50;5072580;28;20398;-69
2021/08/26 06:21:55;;;;;;;23.80;21.38;;;;;;;21.01;89.39;100068.63;5054937;28;20474;-71
2021/08/26 06:24:21;;;;;;;23.98;21.77;;;;;;;21.05;90.32;100065.06;5072669;28;20521;-68
2021/08/26 06:26:46;;;;;;;23.52;21.23;;;;;;;20.75;89.52;99998.09;5072637;28;20017;-68
2021/08/26 06:29:12;;;;;;;25.65;23.05;;;;;;;21.21;88.72;100039.50;5072579;28;20020;-69
2021/08/26 06:31:37;;;;;;;23.60;21.30;;;;;;;21.57;88.85;100058.25;5072157;28;20471;-69
2021/08/26 06:34:03;;;;;;;22.42;20.23;;;;;;;21.86;86.11;100064.81;5072235;28;20031;-70
2021/08/26 06:36:28;;;;;;;23.60;21.15;;;;;;;21.89;86.15;100059.50;5072357;28;20029;-67
2021/08/26 06:38:54;;;;;;;21.85;19.42;;;;;;;22.16;84.12;100054.69;5072639;28;20033;-69
2021/08/26 06:41:19;;;;;;;23.30;20.90;;;;;;;22.03;83.73;100040.91;5072192;28;20073;-69
2021/08/26 06:43:45;;;;;;;20.30;18.30;;;;;;;22.27;82.97;100046.59;5072136;28;20029;-69
2021/08/26 06:46:11;;;;;;;21.88;19.75;;;;;;;22.05;82.45;100012.78;5036935;28;20036;-69
2021/08/26 06:48:36;;;;;;;21.45;19.27;;;;;;;22.27;81.33;100012.44;5071989;28;20021;-69
2021/08/26 06:51:02;;;;;;;23.85;21.40;;;;;;;22.49;82.98;100054.13;5072059;28;20057;-68
2021/08/26 06:53:27;;;;;;;21.42;19.20;;;;;;;22.53;82.26;100046.16;5072356;28;20460;-68
2021/08/26 06:55:53;;;;;;;22.23;20.13;;;;;;;22.65;81.77;100062.59;5072172;28;20028;-69
2021/08/26 06:58:18;;;;;;;20.33;18.38;;;;;;;22.60;80.73;100046.88;5071507;28;20404;-68
2021/08/26 07:00:43;;;;;;;20.45;18.40;;;;;;;22.24;82.60;100044.91;5071765;28;20094;-69
2021/08/26 07:03:09;;;;;;;21.20;19.13;;;;;;;22.11;83.31;100061.78;5071503;28;20020;-69
2021/08/26 07:05:36;;;;;;;23.17;20.77;;;;;;;22.09;86.41;100051.31;5071999;28;20082;-69
2021/08/26 07:08:02;;;;;;;22.63;19.98;;;;;;;22.48;82.99;100055.00;5072036;28;20024;-68
2021/08/26 07:10:27;;;;;;;22.52;20.20;;;;;;;22.57;83.76;100060.97;5071792;28;20379;-69
2021/08/26 07:12:53;;;;;;;21.88;19.77;;;;;;;22.71;82.32;100065.97;5071718;28;20020;-69
2021/08/26 07:15:18;;;;;;;20.50;18.35;;;;;;;22.94;80.14;100056.72;5071730;28;20078;-69
2021/08/26 07:17:43;;;;;;;19.80;17.73;;;;;;;23.00;80.09;100047.84;5071654;28;20039;-69
2021/08/26 07:20:10;;;;;;;18.85;16.80;;;;;;;22.74;78.32;100055.38;5071508;28;20077;-71
2021/08/26 07:22:35;;;;;;;18.00;16.23;;;;;;;22.42;78.84;100021.81;5071441;28;20119;-69
2021/08/26 07:25:01;;;;;;;20.05;18.23;;;;;;;23.01;79.80;100057.47;5071504;28;20115;-69
2021/08/26 07:27:26;;;;;;;20.75;18.67;;;;;;;23.14;78.28;100022.09;5050668;28;20033;-68
2021/08/26 07:29:52;;;;;;;22.88;20.48;;;;;;;23.38;78.18;100051.44;5071382;28;20071;-70
2021/08/26 07:32:20;;;;;;;20.63;18.55;;;;;;;23.54;77.33;100052.81;5057876;28;20060;-72
2021/08/26 07:34:46;;;;;;;21.23;19.13;;;;;;;23.49;77.93;100057.34;5051640;28;20032;-70
2021/08/26 07:37:11;;;;;;;21.40;19.17;;;;;;;23.51;78.71;100067.81;5051625;28;20033;-71
2021/08/26 07:39:36;;;;;;;19.48;17.58;;;;;;;23.72;75.89;100062.03;5051273;28;20122;-72
2021/08/26 07:42:02;;;;;;;19.13;17.23;;;;;;;23.92;74.81;100066.00;5051141;28;20143;-72
2021/08/26 07:44:27;;;;;;;19.60;17.75;;;;;;;23.46;75.61;100067.91;5033564;28;20103;-72
2021/08/26 07:46:53;;;;;;;17.48;15.77;;;;;;;23.52;74.38;100064.28;5051319;28;20036;-72
2021/08/26 07:49:18;;;;;;;19.50;17.50;;;;;;;23.90;75.50;100059.84;5051379;28;20040;-72
2021/08/26 07:51:44;;;;;;;18.95;17.05;;;;;;;24.12;73.64;100054.94;5051222;28;20029;-72
2021/08/26 07:54:09;;;;;;;19.27;17.38;;;;;;;24.18;73.36;100056.56;4999722;28;20037;-71
2021/08/26 07:56:35;;;;;;;19.80;17.83;;;;;;;24.28;76.04;100062.47;5051165;28;20376;-71
2021/08/26 07:59:00;;;;;;;18.23;16.40;;;;;;;24.44;72.60;100041.84;5050989;28;20029;-70
2021/08/26 08:01:26;;;;;;;17.67;15.93;;;;;;;24.30;71.67;100019.31;5050972;28;20391;-70
2021/08/26 08:03:51;;;;;;;17.55;15.85;;;;;;;24.47;72.10;100044.38;5068071;28;20406;-71
2021/08/26 08:06:18;;;;;;;18.00;16.20;;;;;;;24.39;70.60;100013.78;5066776;28;20033;-73
2021/08/26 08:08:43;;;;;;;15.88;13.85;;;;;;;24.71;68.19;100054.28;5054484;28;20028;-70
2021/08/26 08:11:09;;;;;;;16.63;15.02;;;;;;;24.47;69.14;100055.78;5074030;28;20029;-72
2021/08/26 08:13:35;;;;;;;14.38;12.90;;;;;;;24.71;67.35;100038.44;5074040;28;20030;-72
2021/08/26 08:16:03;;;;;;;15.85;14.25;;;;;;;24.97;67.92;100054.44;5073825;28;20021;-72
2021/08/26 08:18:29;;;;;;;14.90;13.50;;;;;;;24.66;67.68;100072.03;5072538;28;20116;-71
2021/08/26 08:20:54;;;;;;;15.77;14.18;;;;;;;24.09;69.77;100039.22;5055961;28;20112;-69
2021/08/26 08:23:20;;;;;;;14.82;13.32;;;;;;;24.58;68.32;100049.34;5054294;28;20029;-74
2021/08/26 08:25:45;;;;;;;14.57;13.05;;;;;;;24.68;68.82;100049.06;5060077;28;20024;-70
2021/08/26 08:28:16;;;;;;;12.98;11.68;;;;;;;24.55;66.53;100048.53;5065441;28;20027;-69
2021/08/26 08:30:42;;;;;;;13.32;11.85;;;;;;;24.48;66.04;100048.75;5073896;28;20059;-69
2021/08/26 08:33:08;;;;;;;13.95;12.55;;;;;;;24.48;69.06;100007.38;5062822;28;20071;-68
2021/08/26 08:35:34;;;;;;;15.20;13.60;;;;;;;24.82;68.34;100040.78;5054900;28;20056;-69
2021/08/26 08:37:59;;;;;;;12.77;11.48;;;;;;;25.03;63.14;100041.03;5054801;28;20454;-69
2021/08/26 08:40:25;;;;;;;13.40;12.02;;;;;;;25.30;64.60;100033.19;5063047;28;20024;-68
2021/08/26 08:42:52;;;;;;;13.60;12.25;;;;;;;25.52;63.29;100026.34;5022632;28;20033;-68
2021/08/26 08:45:18;;;;;;;13.88;12.30;;;;;;;25.70;62.61;100021.38;5055689;28;20452;-70
2021/08/26 08:47:47;;;;;;;12.10;10.90;;;;;;;25.68;61.23;99972.97;5074055;28;20024;-70
2021/08/26 08:50:14;;;;;;;12.20;11.00;;;;;;;25.83;61.73;99971.56;5074056;28;20071;-69
2021/08/26 08:52:40;;;;;;;16.15;12.43;;;;;;;25.93;61.00;99967.72;5022528;28;20028;-71
2021/08/26 08:55:10;;;;;;;13.07;11.77;;;;;;;26.07;60.10;100001.66;5074178;28;20093;-72
2021/08/26 08:57:42;;;;;;;13.77;12.48;;;;;;;26.18;60.24;99985.38;5074034;28;20063;-68
2021/08/26 09:00:15;;;;;;;14.52;12.18;;;;;;;26.37;60.47;99987.34;5077436;28;20109;-67
2021/08/26 09:02:43;;;;;;;14.05;12.65;;;;;;;26.46;61.22;99993.19;5053671;28;20028;-69
2021/08/26 09:05:09;;;;;;;13.25;11.90;;;;;;;26.39;59.65;99973.16;5056138;28;20028;-67
2021/08/26 09:07:35;;;;;;;12.82;11.52;;;;;;;26.60;58.53;99997.97;5074260;28;20035;-68
2021/08/26 09:10:02;;;;;;;14.05;12.27;;;;;;;26.83;61.08;100006.00;5068782;28;20025;-68
2021/08/26 09:12:40;;;;;;;12.60;11.32;;;;;;;26.94;56.71;100006.44;5072226;28;20032;-67
2021/08/26 09:15:13;;;;;;;11.82;10.65;;;;;;;27.01;56.59;99999.16;5073106;28;20052;-69
2021/08/26 09:17:39;;;;;;;15.32;11.45;;;;;;;27.05;56.98;99982.19;5073279;28;20119;-69
2021/08/26 09:20:07;;;;;;;13.63;12.23;;;;;;;27.17;58.45;99984.38;5072822;28;20021;-68
2021/08/26 09:22:32;;;;;;;13.05;10.85;;;;;;;27.31;54.24;99986.47;5072845;28;20017;-66
2021/08/26 09:24:58;;;;;;;13.68;10.55;;;;;;;27.18;57.53;99946.34;5071474;28;20029;-68
2021/08/26 09:27:36;;;;;;;12.20;10.95;;;;;;;27.53;56.32;99977.69;5071743;28;20402;-71
2021/08/26 09:30:07;;;;;;;12.23;10.75;;;;;;;27.41;55.77;99944.56;5070021;28;20024;-67
2021/08/26 09:32:33;;;;;;;13.73;11.90;;;;;;;27.66;57.40;99965.59;5072886;28;20036;-71
2021/08/26 09:35:09;;;;;;;14.32;12.05;;;;;;;27.69;59.24;99960.19;5070119;28;20103;-73
2021/08/26 09:37:43;;;;;;;13.07;11.55;;;;;;;27.86;57.94;99964.75;5072052;28;20538;-66
2021/08/26 09:40:10;;;;;;;13.52;12.02;;;;;;;27.90;57.45;99950.44;5072568;28;20059;-69
2021/08/26 09:42:35;;;;;;;12.52;11.25;;;;;;;27.89;56.53;99950.53;5072526;28;20474;-68
2021/08/26 09:45:20;;;;;;;12.65;11.40;;;;;;;27.92;56.74;99964.47;5072557;28;20026;-68
2021/08/26 09:48:12;;;;;;;13.68;11.50;;;;;;;28.06;58.25;99963.94;5023179;28;20097;-70
2021/08/26 09:50:45;;;;;;;12.55;11.00;;;;;;;28.17;55.07;99955.47;5072380;28;20059;-67
2021/08/26 09:53:23;;;;;;;12.50;11.30;;;;;;;28.22;56.67;99924.28;5071423;28;20036;-70
2021/08/26 09:55:49;;;;;;;12.27;11.07;;;;;;;28.50;53.16;99965.53;5071727;28;20020;-66
2021/08/26 09:58:19;;;;;;;12.57;11.32;;;;;;;28.67;56.78;99966.53;5072223;28;20025;-68
2021/08/26 10:00:45;;;;;;;14.85;10.68;;;;;;;28.52;55.46;99937.09;5072455;28;20052;-68
2021/08/26 10:03:12;;;;;;;12.48;11.27;;;;;;;28.75;55.72;99940.50;5071571;28;20094;-75
2021/08/26 10:05:42;;;;;;;12.18;11.07;;;;;;;28.69;55.01;99898.31;5070063;28;20016;-72
2021/08/26 10:08:28;;;;;;;;;;;;;;;28.93;52.66;99921.97;5072261;28;20051;-70
2021/08/26 10:11:34;;;;;;;11.00;9.90;;;;;;;29.02;50.41;99916.19;5010050;28;19913;-69
2021/08/26 10:14:01;;;;;;;11.90;10.43;;;;;;;29.17;51.92;99926.09;5009945;28;20407;-70
2021/08/26 10:16:27;;;;;;;12.77;11.48;;;;;;;29.12;53.46;99935.22;4993230;28;20042;-71
2021/08/26 10:18:53;;;;;;;11.93;10.82;;;;;;;29.11;51.95;99931.72;5009774;28;20068;-67
2021/08/26 10:21:18;;;;;;;11.73;10.48;;;;;;;29.13;51.18;99929.81;5007622;28;20073;-68
2021/08/26 10:23:45;;;;;;;10.85;9.75;;;;;;;28.96;52.87;99911.19;5009794;28;20073;-70
2021/08/26 10:26:15;;;;;;;11.93;10.65;;;;;;;28.98;54.39;99914.63;5009412;28;20054;-69
2021/08/26 10:28:42;;;;;;;10.73;9.63;;;;;;;28.96;52.23;99912.06;5007965;28;20641;-70
2021/08/26 10:31:31;;;;;;;11.05;9.95;;;;;;;29.02;50.96;99900.25;5007044;28;20037;-68
2021/08/26 10:34:23;;;;;;;11.60;10.38;;;;;;;28.96;53.08;99905.88;5005782;28;20030;-67
2021/08/26 10:36:55;;;;;;;11.85;10.65;;;;;;;28.98;53.76;99911.97;5008508;28;20550;-72
2021/08/26 10:39:39;;;;;;;12.07;10.88;;;;;;;28.88;54.83;99901.78;5009087;28;20069;-68
2021/08/26 10:42:19;;;;;;;13.30;10.48;;;;;;;28.88;52.10;99914.22;5009136;28;20103;-72
2021/08/26 10:45:03;;;;;;;11.88;9.98;;;;;;;28.85;51.42;99920.53;5008160;28;20026;-67
2021/08/26 10:47:47;;;;;;;11.35;10.25;;;;;;;28.84;51.30;99907.34;5010056;28;20523;-68
2021/08/26 10:50:28;;;;;;;11.35;10.25;;;;;;;28.66;52.13;99867.41;5062945;28;20021;-69
2021/08/26 10:53:15;;;;;;;11.07;9.88;;;;;;;28.79;53.11;99888.09;5062826;28;20029;-68
2021/08/26 10:55:47;;;;;;;10.82;9.75;;;;;;;28.51;52.89;99831.81;5063188;28;20072;-68
2021/08/26 10:58:25;;;;;;;12.30;10.20;;;;;;;28.79;52.37;99883.63;5061144;28;20056;-70
2021/08/26 11:00:59;;;;;;;10.85;9.75;;;;;;;28.71;51.75;99880.47;5063212;28;20044;-69
2021/08/26 11:03:45;;;;;;;12.32;9.93;;;;;;;28.77;52.57;99890.81;5064136;28;20033;-70
2021/08/26 11:06:16;;;;;;;11.43;9.77;;;;;;;28.68;53.94;99873.53;5059370;28;20484;-69
2021/08/26 11:08:44;;;;;;;11.48;10.32;;;;;;;28.66;52.10;99858.56;5065988;28;20384;-68
2021/08/26 11:11:28;;;;;;;10.55;9.55;;;;;;;28.71;52.04;99853.91;5000736;28;20046;-70
2021/08/26 11:14:20;;;;;;;10.77;9.68;;;;;;;28.81;51.74;99854.34;5001916;28;20053;-70
2021/08/26 11:16:59;;;;;;;11.05;9.82;;;;;;;28.80;53.81;99842.88;4950626;28;20043;-70
2021/08/26 11:19:25;;;;;;;12.80;10.48;;;;;;;28.85;52.99;99853.28;4949591;28;20043;-71